32°F Temp
23°F Dewpoint
% Humidity
Temperature
7 MPH
11 KM/H
6 KTS
10°
Due North

Wind Speed
Clear
Conditions
Pressure 1022.72 (hPa) - 30.2 (in)
Visibility 9.9 (mi) - 16.0 (km)

Current Conditions
KEQY
Location 15.55km (9.66mi)
Metar :KEQY 100753Z AUTO 01006KT 10SM CLR 00/M05 A3020 RMK AO2 SLP247 T00001050 $
Sun 10th January 03:53 am

Airport
  Metar Aviation API Data Provided by https://www.checkwx.com/ CSS/SVG/PHP scripts by weather34.com © 2015-2021